Time;durP1;ratioP1;P1;durP2;ratioP2;P2;SDS_P1;SDS_P2;PMS_P1;PMS_P2;Temp;Humidity;BMP_temperature;BMP_pressure;BME280_temperature;BME280_humidity;BME280_pressure;Samples;Min_cycle;Max_cycle;Signal;HPM_P1;HPM_P2
2023/05/21 00:00:01;;;;;;;;;22.40;21.40;;;;;16.01;50.67;99209.19;5021289;28;8951;-73
2023/05/21 00:03:00;;;;;;;;;22.80;22.80;;;;;16.12;50.59;99208.69;5066294;28;8851;-73
2023/05/21 00:05:28;;;;;;;;;20.60;20.00;;;;;15.99;51.20;99208.41;5035662;28;8871;-73
2023/05/21 00:07:59;;;;;;;;;19.80;19.00;;;;;15.98;51.16;99209.38;5086415;28;8842;-73
2023/05/21 00:10:27;;;;;;;;;24.20;24.00;;;;;16.09;50.95;99206.16;5086651;28;8870;-72
2023/05/21 00:12:56;;;;;;;;;20.40;20.20;;;;;16.01;51.09;99209.19;5086683;28;8842;-74
2023/05/21 00:15:25;;;;;;;;;22.00;21.60;;;;;16.12;50.63;99206.03;5072957;28;8845;-73
2023/05/21 00:17:54;;;;;;;;;22.60;22.60;;;;;15.92;51.44;99206.16;5048433;28;8863;-73
2023/05/21 00:20:22;;;;;;;;;23.00;22.00;;;;;16.11;50.69;99198.16;5049524;28;8868;-71
2023/05/21 00:22:51;;;;;;;;;23.40;22.40;;;;;16.10;50.80;99193.78;5055200;28;8858;-72
2023/05/21 00:25:21;;;;;;;;;27.60;27.60;;;;;15.97;51.46;99190.88;5064663;28;8834;-73
2023/05/21 00:27:50;;;;;;;;;23.00;23.00;;;;;15.77;51.96;99182.09;5049849;28;8861;-74
2023/05/21 00:30:19;;;;;;;;;21.80;21.80;;;;;15.75;52.18;99194.56;5063673;28;9673;-73
2023/05/21 00:32:48;;;;;;;;;22.80;21.20;;;;;15.78;51.89;99185.63;5067320;28;9784;-74
2023/05/21 00:35:17;;;;;;;;;23.00;22.20;;;;;15.68;52.29;99185.22;5067671;28;8855;-74
2023/05/21 00:37:46;;;;;;;;;23.60;22.40;;;;;15.79;52.13;99187.31;5067061;28;8839;-73
2023/05/21 00:40:15;;;;;;;;;21.40;20.60;;;;;15.66;52.28;99176.44;5067276;28;8971;-72
2023/05/21 00:42:46;;;;;;;;;24.00;22.80;;;;;15.71;52.28;99170.94;5065880;28;8874;-73
2023/05/21 00:45:15;;;;;;;;;26.60;24.00;;;;;15.60;52.67;99172.34;5065886;28;9601;-72
2023/05/21 00:47:47;;;;;;;;;21.60;21.60;;;;;15.70;52.17;99172.75;5064498;28;8929;-73
2023/05/21 00:50:16;;;;;;;;;25.40;23.20;;;;;15.70;52.11;99171.84;5016781;28;8847;-71
2023/05/21 00:52:45;;;;;;;;;24.40;24.40;;;;;15.62;52.38;99169.59;5065668;28;8848;-72
2023/05/21 00:55:14;;;;;;;;;24.40;22.20;;;;;15.55;52.39;99166.34;5032642;28;8991;-72
2023/05/21 00:57:44;;;;;;;;;24.60;24.60;;;;;15.48;52.65;99164.91;5065582;28;9648;-73
2023/05/21 01:00:15;;;;;;;;;20.80;20.80;;;;;15.43;52.76;99172.22;5048919;28;8945;-73
2023/05/21 01:02:45;;;;;;;;;22.40;21.80;;;;;15.51;52.38;99162.13;5059254;28;8864;-72
2023/05/21 01:05:14;;;;;;;;;24.20;24.20;;;;;15.46;52.34;99164.13;4999744;28;8887;-72
2023/05/21 01:07:43;;;;;;;;;22.40;22.40;;;;;15.33;52.75;99157.69;5052951;28;8851;-72
2023/05/21 01:10:12;;;;;;;;;22.40;21.00;;;;;15.28;52.98;99167.63;5032544;28;8894;-72
2023/05/21 01:12:44;;;;;;;;;25.60;23.60;;;;;15.44;52.51;99166.00;5048612;28;8840;-72
2023/05/21 01:15:13;;;;;;;;;25.80;22.40;;;;;15.46;52.57;99169.44;5066091;28;9018;-72
2023/05/21 01:17:44;;;;;;;;;23.60;22.80;;;;;15.38;53.05;99172.44;5067072;28;9643;-74
2023/05/21 01:20:16;;;;;;;;;27.60;25.40;;;;;15.56;52.37;99170.69;5065791;28;8877;-71
2023/05/21 01:22:55;;;;;;;;;24.40;23.80;;;;;15.54;52.35;99169.06;5066204;28;9617;-74
2023/05/21 01:25:25;;;;;;;;;24.00;22.80;;;;;15.64;52.23;99162.41;5066372;28;8890;-73
2023/05/21 01:27:54;;;;;;;;;23.20;23.20;;;;;15.59;52.17;99159.97;5049996;28;8876;-73
2023/05/21 01:30:24;;;;;;;;;25.60;24.60;;;;;15.63;52.32;99158.06;5065097;28;8846;-72
2023/05/21 01:33:00;;;;;;;;;26.00;25.00;;;;;15.50;52.62;99154.25;5064830;28;8846;-74
2023/05/21 01:35:33;;;;;;;;;19.60;19.60;;;;;15.69;52.12;99163.06;5048803;28;8983;-74
2023/05/21 01:38:12;;;;;;;;;26.20;24.40;;;;;15.84;51.72;99150.84;5076612;28;9929;-71
2023/05/21 01:40:52;;;;;;;;;26.00;24.20;;;;;15.73;51.86;99147.88;5066420;28;8870;-72
2023/05/21 01:43:23;;;;;;;;;21.80;20.60;;;;;15.59;52.39;99146.72;5067547;28;8834;-73
2023/05/21 01:45:55;;;;;;;;;25.60;25.60;;;;;15.80;51.60;99146.66;5049557;28;8864;-71
2023/05/21 01:48:25;;;;;;;;;26.20;24.20;;;;;15.80;51.51;99150.16;5050490;28;8889;-72
2023/05/21 01:50:55;;;;;;;;;17.20;16.40;;;;;15.93;51.30;99155.72;5048557;28;8942;-74
2023/05/21 01:53:26;;;;;;;;;28.80;28.40;;;;;16.07;50.79;99144.41;5055034;28;8860;-73
2023/05/21 01:55:55;;;;;;;;;24.20;24.00;;;;;16.10;50.50;99148.72;5047136;28;8852;-74
2023/05/21 01:58:24;;;;;;;;;24.80;23.80;;;;;16.05;50.83;99151.59;4996192;28;8860;-73
2023/05/21 02:00:52;;;;;;;;;27.40;25.60;;;;;16.07;50.46;99136.44;5045805;28;8892;-73
2023/05/21 02:03:21;;;;;;;;;26.00;24.00;;;;;16.09;50.50;99136.38;5047095;28;8837;-72
2023/05/21 02:05:51;;;;;;;;;23.20;22.60;;;;;16.18;50.16;99134.13;5066671;28;8863;-73
2023/05/21 02:08:22;;;;;;;;;22.60;22.60;;;;;16.24;49.89;99125.00;5032239;28;8878;-72
2023/05/21 02:10:52;;;;;;;;;23.80;22.80;;;;;16.27;49.88;99126.66;5047362;28;8848;-72
2023/05/21 02:13:21;;;;;;;;;23.20;23.00;;;;;16.40;49.42;99125.94;5045832;28;8857;-72
2023/05/21 02:15:53;;;;;;;;;25.40;24.00;;;;;16.45;49.21;99136.31;5045619;28;8864;-72
2023/05/21 02:18:25;;;;;;;;;22.60;22.60;;;;;16.57;49.04;99137.50;5045450;28;8865;-73
2023/05/21 02:20:53;;;;;;;;;23.00;22.60;;;;;16.65;48.73;99137.09;5047381;28;8880;-71
2023/05/21 02:23:22;;;;;;;;;24.80;24.60;;;;;16.72;48.46;99142.00;5045634;28;8853;-73
2023/05/21 02:25:52;;;;;;;;;24.20;24.20;;;;;16.80;48.33;99139.78;5059358;28;8847;-75
2023/05/21 02:28:22;;;;;;;;;25.80;24.20;;;;;16.73;48.35;99151.66;5057654;28;8846;-74
2023/05/21 02:30:51;;;;;;;;;25.80;23.40;;;;;16.58;48.91;99149.81;5027976;28;8990;-74
2023/05/21 02:33:21;;;;;;;;;25.40;23.60;;;;;16.74;48.73;99145.44;5028155;28;8896;-74
2023/05/21 02:35:50;;;;;;;;;27.40;24.20;;;;;16.73;48.79;99149.00;5044198;28;8838;-73
2023/05/21 02:38:21;;;;;;;;;23.40;23.40;;;;;16.55;49.24;99150.84;5027576;28;8858;-73
2023/05/21 02:40:52;;;;;;;;;24.00;22.60;;;;;16.45;49.89;99151.38;5062855;28;8831;-73
2023/05/21 02:43:21;;;;;;;;;25.00;23.60;;;;;16.70;49.20;99153.63;5067801;28;8836;-74
2023/05/21 02:45:50;;;;;;;;;24.40;22.40;;;;;16.71;49.27;99148.22;5068126;28;8874;-72
2023/05/21 02:48:19;;;;;;;;;25.80;25.80;;;;;16.72;49.05;99152.63;5005452;28;8940;-73
2023/05/21 02:50:47;;;;;;;;;28.20;24.40;;;;;16.74;48.94;99156.03;5047887;28;8846;-73
2023/05/21 02:53:16;;;;;;;;;22.40;22.40;;;;;16.77;48.87;99150.56;5034698;28;8878;-73
2023/05/21 02:55:45;;;;;;;;;30.60;27.00;;;;;16.67;49.21;99153.78;5067498;28;8954;-73
2023/05/21 02:58:15;;;;;;;;;23.40;21.40;;;;;16.78;48.83;99141.66;4995912;28;8866;-74
2023/05/21 03:00:44;;;;;;;;;24.00;24.00;;;;;16.76;48.96;99140.88;5048093;28;9106;-74
2023/05/21 03:03:13;;;;;;;;;23.40;22.40;;;;;16.79;48.58;99146.00;5053038;28;8878;-74
2023/05/21 03:05:42;;;;;;;;;27.80;23.80;;;;;16.75;48.78;99147.13;5064152;28;8866;-73
2023/05/21 03:08:11;;;;;;;;;26.00;24.00;;;;;16.76;48.78;99145.34;5019311;28;8878;-72
2023/05/21 03:10:40;;;;;;;;;28.60;28.60;;;;;16.76;49.08;99148.00;5019223;28;8846;-75
2023/05/21 03:13:09;;;;;;;;;25.40;23.00;;;;;16.63;49.39;99150.44;5062121;28;8837;-72
2023/05/21 03:15:39;;;;;;;;;27.80;25.00;;;;;16.74;49.14;99141.91;5049373;28;8845;-74
2023/05/21 03:18:10;;;;;;;;;26.80;25.40;;;;;16.72;49.29;99149.06;5048721;28;8945;-73
2023/05/21 03:20:42;;;;;;;;;26.80;25.00;;;;;16.85;48.95;99149.28;5050053;28;8891;-72
2023/05/21 03:23:12;;;;;;;;;28.00;25.80;;;;;16.88;49.24;99155.28;5036245;28;8979;-73
2023/05/21 03:25:44;;;;;;;;;25.60;25.40;;;;;16.93;48.86;99165.69;5068574;28;8981;-73
2023/05/21 03:28:16;;;;;;;;;29.40;28.40;;;;;16.86;49.06;99159.00;5065007;28;8862;-72
2023/05/21 03:30:49;;;;;;;;;28.60;28.60;;;;;16.75;49.67;99159.53;5061284;28;8975;-73
2023/05/21 03:33:42;;;;;;;;;38.50;33.25;;;;;16.72;49.64;99170.31;5027247;28;8872;-73
2023/05/21 03:36:25;;;;;;;;;36.25;31.75;;;;;16.80;49.49;99171.63;5010527;28;8896;-74
2023/05/21 03:38:54;;;;;;;;;29.25;28.00;;;;;17.03;48.71;99172.22;5026287;28;8933;-74
2023/05/21 03:41:23;;;;;;;;;26.40;25.40;;;;;16.85;49.47;99173.19;5017412;28;8856;-76
2023/05/21 03:43:56;;;;;;;;;33.60;29.60;;;;;16.99;48.79;99171.50;5049236;28;8866;-73
2023/05/21 03:46:31;;;;;;;;;29.00;26.60;;;;;16.71;49.63;99172.13;5006792;28;9620;-73
2023/05/21 03:49:05;;;;;;;;;28.60;27.40;;;;;16.75;49.62;99173.66;4990697;28;8836;-73
2023/05/21 03:51:37;;;;;;;;;21.00;20.20;;;;;16.59;50.19;99176.28;4990452;28;8856;-72
2023/05/21 03:54:06;;;;;;;;;45.75;37.50;;;;;16.49;50.70;99182.97;4989683;28;8878;-73
2023/05/21 03:56:37;;;;;;;;;31.00;28.75;;;;;16.57;50.39;99186.13;4993660;28;9010;-73
2023/05/21 03:59:06;;;;;;;;;32.75;31.00;;;;;16.77;49.94;99182.41;5017572;28;8843;-73
2023/05/21 04:01:37;;;;;;;;;30.00;28.60;;;;;16.77;49.93;99185.06;5006553;28;8846;-73
2023/05/21 04:04:09;;;;;;;;;30.25;27.25;;;;;16.80;49.73;99189.38;4990871;28;8855;-72
2023/05/21 04:06:41;;;;;;;;;31.60;27.40;;;;;16.80;49.77;99184.91;4958085;28;8952;-74
2023/05/21 04:09:11;;;;;;;;;27.40;26.00;;;;;16.84;49.55;99190.06;5006912;28;8921;-73
2023/05/21 04:11:40;;;;;;;;;29.25;26.75;;;;;17.03;49.28;99182.84;4990527;28;8840;-74
2023/05/21 04:14:11;;;;;;;;;27.80;27.80;;;;;17.20;48.75;99193.41;5006789;28;8866;-73
2023/05/21 04:16:42;;;;;;;;;31.00;29.60;;;;;17.07;49.14;99195.00;4994475;28;8993;-72
2023/05/21 04:19:12;;;;;;;;;30.60;29.80;;;;;17.20;48.60;99196.06;5047935;28;8879;-75
2023/05/21 04:21:43;;;;;;;;;33.20;28.60;;;;;17.22;48.77;99195.13;5047718;28;8841;-73
2023/05/21 04:24:15;;;;;;;;;26.60;24.60;;;;;17.28;48.36;99200.97;5047959;28;8900;-71
2023/05/21 04:27:00;;;;;;;;;50.50;43.25;;;;;17.35;48.17;99197.06;5064546;28;8865;-72
2023/05/21 04:29:31;;;;;;;;;29.80;27.20;;;;;17.34;48.41;99191.81;5065756;28;8939;-72
2023/05/21 04:32:01;;;;;;;;;28.80;27.60;;;;;17.32;48.52;99204.34;5068675;28;8870;-71
2023/05/21 04:34:32;;;;;;;;;29.00;27.75;;;;;17.29;48.88;99197.41;5067536;28;8877;-73
2023/05/21 04:37:02;;;;;;;;;25.60;25.20;;;;;17.41;48.20;99198.53;5018459;28;8859;-73
2023/05/21 04:39:31;;;;;;;;;32.75;30.00;;;;;17.54;47.89;99199.56;5070324;28;8869;-71
2023/05/21 04:42:00;;;;;;;;;25.50;25.50;;;;;17.61;47.59;99200.09;5068715;28;8947;-72
2023/05/21 04:44:30;;;;;;;;;29.75;28.00;;;;;17.36;47.76;99195.25;5066883;28;9749;-71
2023/05/21 04:47:02;;;;;;;;;29.00;26.25;;;;;17.47;47.65;99198.16;5066036;28;8946;-73
2023/05/21 04:49:33;;;;;;;;;24.20;23.60;;;;;17.56;47.06;99202.97;5049037;28;8847;-75
2023/05/21 04:52:02;;;;;;;;;37.00;33.75;;;;;17.51;47.31;99199.75;5066789;28;9715;-72
2023/05/21 04:54:31;;;;;;;;;26.25;26.25;;;;;17.57;47.05;99203.84;5062644;28;8845;-74
2023/05/21 04:56:59;;;;;;;;;23.60;23.60;;;;;17.67;46.95;99198.88;5028986;28;8956;-73
2023/05/21 04:59:29;;;;;;;;;27.00;27.00;;;;;17.73;46.53;99202.03;5046980;28;8887;-73
2023/05/21 05:01:57;;;;;;;;;23.80;23.80;;;;;17.68;46.57;99208.56;5048826;28;8860;-74
2023/05/21 05:04:28;;;;;;;;;25.00;24.40;;;;;17.80;46.17;99204.34;5008263;28;8848;-73
2023/05/21 05:06:56;;;;;;;;;28.50;26.75;;;;;17.77;46.42;99202.72;5008968;28;8872;-74
2023/05/21 05:09:25;;;;;;;;;29.20;25.20;;;;;17.72;46.63;99196.81;5025163;28;8867;-72
2023/05/21 05:11:54;;;;;;;;;26.50;24.75;;;;;17.80;46.64;99199.91;5025683;28;8867;-72
2023/05/21 05:14:23;;;;;;;;;28.50;26.25;;;;;17.85;46.57;99208.47;5036273;28;8849;-73
2023/05/21 05:16:53;;;;;;;;;27.25;23.00;;;;;17.87;46.87;99201.28;5028707;28;8845;-72
2023/05/21 05:19:22;;;;;;;;;25.00;24.60;;;;;17.81;46.87;99198.94;5022207;28;8906;-74
2023/05/21 05:21:52;;;;;;;;;24.00;23.25;;;;;17.87;46.79;99195.97;5008586;28;9065;-73
2023/05/21 05:24:22;;;;;;;;;30.75;27.75;;;;;17.89;46.48;99193.19;5024608;28;8961;-73
2023/05/21 05:26:51;;;;;;;;;30.50;27.25;;;;;18.03;46.29;99193.31;5005558;28;8883;-72
2023/05/21 05:29:21;;;;;;;;;27.50;26.00;;;;;18.05;46.30;99186.09;5016062;28;8880;-74
2023/05/21 05:31:49;;;;;;;;;24.80;23.40;;;;;17.80;46.62;99191.94;4992152;28;8840;-73
2023/05/21 05:34:19;;;;;;;;;25.80;23.80;;;;;17.89;46.48;99199.38;5007998;28;8906;-74
2023/05/21 05:36:49;;;;;;;;;27.40;25.40;;;;;18.20;45.74;99191.47;5046669;28;8907;-72
2023/05/21 05:39:20;;;;;;;;;27.50;25.00;;;;;18.29;45.59;99201.56;5026060;28;8853;-73
2023/05/21 05:41:49;;;;;;;;;23.75;23.75;;;;;18.36;45.05;99197.59;5031684;28;8932;-73
2023/05/21 05:44:18;;;;;;;;;27.80;27.20;;;;;18.40;44.92;99200.94;5057212;28;8847;-73
2023/05/21 05:46:46;;;;;;;;;22.00;22.00;;;;;18.39;44.77;99196.59;5064027;28;8898;-72
2023/05/21 05:49:15;;;;;;;;;23.20;23.20;;;;;18.58;44.17;99191.88;5033117;28;8869;-74
2023/05/21 05:51:44;;;;;;;;;23.20;22.00;;;;;18.69;43.56;99197.41;5061151;28;8826;-73
2023/05/21 05:54:13;;;;;;;;;22.80;22.00;;;;;18.85;43.67;99189.34;5045724;28;8864;-73
2023/05/21 05:56:43;;;;;;;;;19.80;18.80;;;;;19.01;42.77;99189.28;5060859;28;8859;-73
2023/05/21 05:59:12;;;;;;;;;23.00;21.80;;;;;19.20;42.61;99191.66;5042237;28;8873;-72
2023/05/21 06:01:47;;;;;;;;;21.80;21.60;;;;;19.20;42.14;99194.34;5045358;28;8938;-72
2023/05/21 06:04:17;;;;;;;;;22.60;22.60;;;;;19.24;42.22;99187.84;5065655;28;8854;-72
2023/05/21 06:06:47;;;;;;;;;25.40;23.20;;;;;19.39;42.08;99193.19;5060917;28;8986;-74
2023/05/21 06:09:16;;;;;;;;;22.60;21.40;;;;;19.36;42.17;99193.38;5043258;28;8854;-73
2023/05/21 06:11:46;;;;;;;;;22.20;22.20;;;;;19.55;42.13;99187.75;5012972;28;8880;-72
2023/05/21 06:14:15;;;;;;;;;24.40;21.20;;;;;19.64;41.88;99189.81;5052709;28;8870;-74
2023/05/21 06:16:44;;;;;;;;;23.00;22.00;;;;;19.58;42.38;99203.56;5058220;28;9002;-73
2023/05/21 06:19:13;;;;;;;;;23.00;22.40;;;;;19.64;42.56;99203.16;5068013;28;8840;-73
2023/05/21 06:21:41;;;;;;;;;19.00;18.80;;;;;19.77;42.00;99193.41;5068403;28;8881;-73
2023/05/21 06:24:10;;;;;;;;;21.40;21.20;;;;;19.69;41.58;99191.25;5053490;28;8849;-74
2023/05/21 06:26:39;;;;;;;;;22.40;22.20;;;;;20.03;41.20;99196.19;5031158;28;8908;-73
2023/05/21 06:29:10;;;;;;;;;23.20;22.40;;;;;19.87;40.53;99194.50;5048023;28;8874;-72
2023/05/21 06:31:41;;;;;;;;;20.80;20.80;;;;;20.06;40.87;99185.31;5031299;28;8862;-73
2023/05/21 06:34:10;;;;;;;;;25.50;22.25;;;;;20.22;39.95;99190.50;5001515;28;8954;-74
2023/05/21 06:36:39;;;;;;;;;22.60;22.60;;;;;19.98;40.68;99190.31;5050474;28;8907;-75
2023/05/21 06:39:08;;;;;;;;;18.80;18.80;;;;;20.03;40.12;99185.53;5051408;28;8899;-72
2023/05/21 06:41:36;;;;;;;;;19.20;19.20;;;;;20.02;40.19;99189.13;5064640;28;8932;-71
2023/05/21 06:44:24;;;;;;;;;21.60;20.60;;;;;20.41;39.95;99190.16;5064467;28;8829;-74
2023/05/21 06:47:07;;;;;;;;;20.40;20.00;;;;;20.48;39.78;99180.72;5068875;28;8880;-73
2023/05/21 06:49:36;;;;;;;;;21.00;20.80;;;;;20.83;39.13;99180.97;5069097;28;8934;-72
2023/05/21 06:52:05;;;;;;;;;24.00;19.80;;;;;20.61;37.59;99178.09;5070537;28;8843;-72
2023/05/21 06:54:35;;;;;;;;;24.20;21.60;;;;;20.79;37.19;99181.31;5070288;28;8870;-70
2023/05/21 06:57:04;;;;;;;;;15.80;15.80;;;;;20.81;37.34;99174.03;5068124;28;8874;-77
2023/05/21 06:59:34;;;;;;;;;18.80;18.60;;;;;20.97;37.36;99180.03;5052622;28;8851;-78
2023/05/21 07:02:04;;;;;;;;;26.50;25.50;;;;;21.05;37.15;99172.34;5023357;28;10280;-75
2023/05/21 07:04:34;;;;;;;;;23.40;22.20;;;;;21.19;37.29;99174.03;5049768;28;8849;-79
2023/05/21 07:07:03;;;;;;;;;22.60;21.20;;;;;21.37;36.90;99171.00;5008957;28;9932;-81
2023/05/21 07:09:32;;;;;;;;;23.60;20.00;;;;;21.54;36.27;99175.13;5060204;28;8895;-81
2023/05/21 07:12:02;;;;;;;;;20.00;20.00;;;;;21.52;35.65;99180.63;5053586;28;8861;-81
2023/05/21 07:14:31;;;;;;;;;20.40;20.40;;;;;21.48;35.59;99180.94;5049292;28;8948;-81
2023/05/21 07:17:01;;;;;;;;;22.20;20.60;;;;;21.78;35.36;99170.69;5050484;28;9615;-77
2023/05/21 07:19:31;;;;;;;;;16.80;16.80;;;;;21.71;35.34;99180.16;5060732;28;8850;-81
2023/05/21 07:22:00;;;;;;;;;21.80;21.80;;;;;21.49;35.15;99178.16;5052382;28;8857;-80
2023/05/21 07:24:29;;;;;;;;;21.00;19.80;;;;;21.67;35.06;99183.16;5065874;28;8869;-82
2023/05/21 07:26:58;;;;;;;;;21.40;20.80;;;;;21.80;34.81;99187.50;5044197;28;8903;-81
2023/05/21 07:29:27;;;;;;;;;18.80;17.40;;;;;21.82;35.00;99185.59;5014019;28;8854;-80
2023/05/21 07:31:56;;;;;;;;;24.50;22.50;;;;;21.81;35.36;99186.53;5031209;28;9011;-82
2023/05/21 07:34:26;;;;;;;;;20.40;20.40;;;;;21.92;34.67;99188.44;5032813;28;8884;-79
2023/05/21 07:36:55;;;;;;;;;22.40;21.00;;;;;22.06;34.66;99192.75;5048715;28;8940;-80
2023/05/21 07:39:24;;;;;;;;;23.60;20.60;;;;;21.96;34.27;99186.38;5031908;28;8856;-81
2023/05/21 07:41:53;;;;;;;;;21.00;21.00;;;;;21.93;35.02;99183.91;5044861;28;8876;-82
2023/05/21 07:44:24;;;;;;;;;21.20;21.20;;;;;22.25;35.27;99184.22;5015979;28;8990;-80
2023/05/21 07:46:52;;;;;;;;;21.00;19.00;;;;;22.49;34.94;99183.34;5032936;28;8857;-80
2023/05/21 07:49:21;;;;;;;;;20.00;20.00;;;;;22.59;33.85;99187.84;5076219;28;8923;-80
2023/05/21 07:51:52;;;;;;;;;22.40;22.40;;;;;22.79;33.77;99186.31;5057132;28;8869;-80
2023/05/21 07:54:21;;;;;;;;;19.80;19.20;;;;;23.09;33.95;99181.38;5032462;28;8888;-80
2023/05/21 07:56:50;;;;;;;;;24.40;22.40;;;;;23.10;33.45;99183.09;5032460;28;8875;-82
2023/05/21 07:59:39;;;;;;;;;18.80;18.80;;;;;23.00;32.74;99175.78;5007321;28;8945;-81
2023/05/21 08:02:08;;;;;;;;;21.20;19.60;;;;;22.90;32.21;99184.66;5048397;28;8851;-81
2023/05/21 08:04:38;;;;;;;;;22.40;22.00;;;;;23.07;32.89;99173.47;5068888;28;8858;-81
2023/05/21 08:07:12;;;;;;;;;21.00;20.00;;;;;23.49;32.11;99176.38;5050988;28;8830;-80
2023/05/21 08:09:41;;;;;;;;;20.80;20.00;;;;;23.66;31.96;99177.72;5074443;28;8851;-80
2023/05/21 08:12:14;;;;;;;;;18.00;18.00;;;;;23.71;31.71;99174.63;5046254;28;8884;-80
2023/05/21 08:14:44;;;;;;;;;21.40;20.20;;;;;23.71;31.95;99172.78;5031646;28;8877;-80
2023/05/21 08:17:15;;;;;;;;;21.00;21.00;;;;;23.93;31.92;99177.25;5032032;28;8871;-78
2023/05/21 08:19:44;;;;;;;;;21.80;21.60;;;;;23.72;30.89;99179.03;5049149;28;8958;-81
2023/05/21 08:22:14;;;;;;;;;20.00;19.60;;;;;23.55;30.40;99177.72;5048638;28;8876;-81
2023/05/21 08:24:47;;;;;;;;;17.80;17.80;;;;;23.72;30.95;99176.34;5046651;28;8870;-78
2023/05/21 08:27:16;;;;;;;;;17.40;16.60;;;;;23.39;30.91;99170.00;5001889;28;8847;-80
2023/05/21 08:29:45;;;;;;;;;20.40;19.60;;;;;23.87;31.08;99174.25;5059576;28;8893;-78
2023/05/21 08:32:14;;;;;;;;;18.60;18.20;;;;;24.06;30.54;99171.72;5048038;28;9011;-81
2023/05/21 08:34:44;;;;;;;;;18.40;17.80;;;;;24.25;30.59;99175.59;5066009;28;8932;-80
2023/05/21 08:37:31;;;;;;;;;20.00;19.60;;;;;24.34;30.39;99181.03;5049697;28;8969;-78
2023/05/21 08:40:20;;;;;;;;;20.25;19.75;;;;;23.65;30.43;99176.00;5021476;28;8905;-80
2023/05/21 08:42:50;;;;;;;;;21.00;20.00;;;;;23.43;30.77;99166.13;5052128;28;8987;-81
2023/05/21 08:45:36;;;;;;;;;20.40;19.20;;;;;23.65;31.00;99176.00;5044090;28;8854;-81
2023/05/21 08:48:09;;;;;;;;;18.20;16.80;;;;;23.64;31.03;99171.63;5050107;28;8981;-80
2023/05/21 08:50:38;;;;;;;;;18.40;18.40;;;;;23.81;31.55;99172.03;5067130;28;8889;-81
2023/05/21 08:53:14;;;;;;;;;21.60;19.20;;;;;23.39;31.54;99176.25;5067108;28;8889;-80
2023/05/21 08:55:57;;;;;;;;;25.60;22.00;;;;;23.39;31.85;99175.38;5067198;28;8870;-82
2023/05/21 08:58:44;;;;;;;;;19.60;18.40;;;;;23.38;31.80;99174.53;5066280;28;8888;-80
2023/05/21 09:01:18;;;;;;;;;21.80;19.80;;;;;23.28;31.67;99172.72;5019059;28;8896;-82
2023/05/21 09:03:52;;;;;;;;;23.20;21.40;;;;;23.19;31.64;99169.81;5050504;28;8888;-80
2023/05/21 09:06:32;;;;;;;;;16.20;16.20;;;;;23.49;31.59;99179.03;5065919;28;8858;-82
2023/05/21 09:09:11;;;;;;;;;18.40;18.40;;;;;23.18;31.23;99173.44;5077143;28;8869;-83
2023/05/21 09:11:47;;;;;;;;;25.20;23.20;;;;;23.21;31.46;99174.19;5053288;28;8856;-80
2023/05/21 09:14:17;;;;;;;;;18.80;17.20;;;;;23.49;31.23;99171.00;5047904;28;8864;-80
2023/05/21 09:17:00;;;;;;;;;19.80;18.60;;;;;23.17;30.31;99170.91;5025150;28;8861;-80
2023/05/21 09:19:30;;;;;;;;;15.40;14.00;;;;;23.31;30.85;99173.31;4997297;28;9599;-80
2023/05/21 09:22:04;;;;;;;;;19.20;19.00;;;;;23.30;30.01;99168.94;5048937;28;8871;-80
2023/05/21 09:24:35;;;;;;;;;19.40;16.60;;;;;23.26;29.86;99159.44;5035354;28;8870;-80
2023/05/21 09:27:07;;;;;;;;;16.40;15.20;;;;;23.17;29.50;99161.03;5044788;28;8893;-80
2023/05/21 09:29:36;;;;;;;;;19.20;17.60;;;;;23.55;29.67;99164.31;5044612;28;8858;-80
2023/05/21 09:32:07;;;;;;;;;19.20;18.40;;;;;23.65;29.63;99167.09;5062207;28;8932;-78
2023/05/21 09:34:41;;;;;;;;;18.00;16.60;;;;;23.85;29.41;99160.94;5019147;28;8871;-80
2023/05/21 09:37:10;;;;;;;;;18.60;16.60;;;;;23.62;28.69;99160.16;5049985;28;8867;-77
2023/05/21 09:39:56;;;;;;;;;17.40;17.40;;;;;23.81;28.06;99161.31;5027407;28;8870;-78
2023/05/21 09:42:30;;;;;;;;;19.40;19.00;;;;;23.94;28.40;99159.31;5012213;28;8873;-79
2023/05/21 09:44:59;;;;;;;;;19.00;18.40;;;;;23.93;28.19;99152.25;5044331;28;8939;-79
2023/05/21 09:47:28;;;;;;;;;19.50;17.50;;;;;24.02;28.37;99161.34;5043294;28;8850;-78
2023/05/21 09:49:58;;;;;;;;;18.50;17.25;;;;;23.70;28.83;99164.91;5028587;28;8862;-81
2023/05/21 09:52:28;;;;;;;;;17.75;17.75;;;;;23.93;28.92;99166.50;5028679;28;8854;-79
2023/05/21 09:54:58;;;;;;;;;19.00;18.50;;;;;23.78;28.63;99160.59;5047438;28;8845;-80
2023/05/21 09:57:27;;;;;;;;;18.20;17.00;;;;;24.01;28.66;99165.03;5053011;28;8870;-82
2023/05/21 09:59:56;;;;;;;;;18.00;16.75;;;;;23.93;28.71;99160.31;4992092;28;8868;-80
2023/05/21 10:02:26;;;;;;;;;23.40;19.80;;;;;23.77;28.70;99166.06;4992997;28;9579;-79
2023/05/21 10:04:56;;;;;;;;;19.00;19.00;;;;;23.77;28.71;99166.06;5025299;28;8861;-79
2023/05/21 10:07:26;;;;;;;;;16.25;15.25;;;;;23.82;28.18;99168.38;5041835;28;8904;-80
2023/05/21 10:10:00;;;;;;;;;20.40;18.40;;;;;23.93;28.35;99165.69;5004760;28;8854;-82
2023/05/21 10:12:31;;;;;;;;;22.25;19.25;;;;;23.66;28.57;99156.25;5020987;28;8943;-80
2023/05/21 10:15:01;;;;;;;;;18.40;18.40;;;;;23.66;28.18;99161.59;5014051;28;8894;-80
2023/05/21 10:17:30;;;;;;;;;21.00;20.50;;;;;23.74;28.61;99155.59;4991491;28;8855;-81
2023/05/21 10:20:00;;;;;;;;;22.00;21.50;;;;;23.74;28.01;99159.13;5007441;28;8859;-75
2023/05/21 10:22:30;;;;;;;;;21.00;19.75;;;;;23.56;27.99;99156.16;5023986;28;8899;-75
2023/05/21 10:25:02;;;;;;;;;17.80;16.00;;;;;23.60;28.22;99134.41;4990945;28;8860;-75
2023/05/21 10:27:33;;;;;;;;;20.60;18.00;;;;;23.75;28.33;99147.44;5023820;28;8855;-74
2023/05/21 10:30:02;;;;;;;;;19.20;19.20;;;;;24.02;27.19;99145.25;4990066;28;8852;-75
2023/05/21 10:32:32;;;;;;;;;20.20;19.40;;;;;23.95;27.42;99147.59;5003815;28;8866;-75
2023/05/21 10:35:02;;;;;;;;;10.80;10.80;;;;;24.10;27.35;99145.47;5004486;28;8861;-75
2023/05/21 10:37:32;;;;;;;;;21.20;20.80;;;;;24.24;26.85;99139.81;4987674;28;8869;-78
2023/05/21 10:40:03;;;;;;;;;22.20;21.60;;;;;24.28;26.84;99133.22;5005565;28;8955;-77
2023/05/21 10:43:12;;;;;;;;;21.00;19.60;;;;;24.62;26.61;99142.88;5043544;28;8902;-74
2023/05/21 10:46:05;;;;;;;;;21.00;21.00;;;;;24.88;25.87;99140.66;5046342;28;8901;-75
2023/05/21 10:48:57;;;;;;;;;19.50;17.75;;;;;24.85;26.44;99148.97;5044272;28;9027;-81
2023/05/21 10:51:29;;;;;;;;;23.75;22.00;;;;;24.79;25.98;99144.97;5050620;28;8881;-80
2023/05/21 10:54:15;;;;;;;;;20.00;18.75;;;;;24.70;26.48;99141.25;5058966;28;9008;-81
2023/05/21 10:56:55;;;;;;;;;25.75;25.75;;;;;24.78;25.43;99137.94;5046291;28;9062;-81
2023/05/21 10:59:39;;;;;;;;;20.00;19.20;;;;;24.81;25.52;99128.72;5061619;28;8854;-75
2023/05/21 11:02:11;;;;;;;;;23.60;20.40;;;;;24.59;26.46;99135.94;5044800;28;9018;-74
2023/05/21 11:04:42;;;;;;;;;23.50;21.75;;;;;24.58;26.34;99126.16;5034244;28;9022;-75
2023/05/21 11:07:12;;;;;;;;;17.80;17.60;;;;;24.68;25.49;99126.22;5055149;28;8873;-77
2023/05/21 11:09:41;;;;;;;;;21.80;21.80;;;;;25.08;26.07;99129.00;5049954;28;8958;-73
2023/05/21 11:12:11;;;;;;;;;20.80;19.80;;;;;25.04;25.60;99130.25;5049644;28;8841;-74
2023/05/21 11:14:42;;;;;;;;;19.60;19.40;;;;;25.39;25.67;99122.75;5055134;28;9640;-77
2023/05/21 11:17:13;;;;;;;;;20.40;19.00;;;;;25.56;25.17;99116.69;5059269;28;8861;-76
2023/05/21 11:19:45;;;;;;;;;20.20;19.20;;;;;25.60;24.86;99114.56;5050825;28;9662;-78
2023/05/21 11:22:23;;;;;;;;;18.20;18.20;;;;;25.78;25.11;99123.66;5047526;28;10258;-76
2023/05/21 11:24:52;;;;;;;;;20.20;19.20;;;;;25.79;23.94;99128.03;5061256;28;8854;-77
2023/05/21 11:27:33;;;;;;;;;19.40;19.00;;;;;26.11;24.50;99109.94;5062107;28;8915;-76
2023/05/21 11:30:05;;;;;;;;;20.40;20.40;;;;;25.95;23.58;99103.31;5051730;28;8853;-75
2023/05/21 11:32:37;;;;;;;;;22.25;21.00;;;;;25.82;23.90;99105.41;5049178;28;9682;-78
2023/05/21 11:35:07;;;;;;;;;22.25;20.50;;;;;26.21;23.44;99102.69;5048237;28;8881;-75
2023/05/21 11:37:40;;;;;;;;;15.40;15.40;;;;;26.52;23.59;99099.84;5049852;28;8912;-77
2023/05/21 11:40:21;;;;;;;;;35.75;32.25;;;;;26.41;23.26;99104.38;5050049;28;8850;-77
2023/05/21 11:42:53;;;;;;;;;18.20;17.60;;;;;26.22;22.45;99097.16;5058800;28;9624;-75